Main page
METAR-TAF:

METAR-TAF

Airports :

Oiapoque, Amapá, Brazil

latitude: 03-50N, longitude: 051-50W, elevation: 39 m

Current weather observation

The report was made 23 minutes ago, at 13:00 UTC
Wind 6 kt from the Northeast
Temperature 27°C
Humidity 79%
Pressure 1014 hPa
Visibility 10 km or more
Few clouds at a height of 2000 ft
Broken clouds at a height of 7000 ft

METAR: SBOI 261300Z 05006KT 9999 FEW020 BKN070 27/23 Q1014

Time: 10:23 (13:23 UTC)

Forecast

The report was made 3 hours and 23 minutes ago, at 10:00 UTC
Forecast valid from 26 at 12 UTC to 26 at 24 UTC
Wind 10 kt from the North
Visibility 10 km or more
Scattered clouds at a height of 2000 ft
Becoming
from 26 at 15 UTC to 26 at 17 UTC
Wind 10 kt from the Northeast
Scattered clouds at a height of 3000 ft
Becoming
from 26 at 19 UTC to 26 at 21 UTC
Wind 10 kt from the North

TAF: SBOI 261000Z 2612/2624 01010KT 9999 SCT020 TN27/2613Z TX30/2618Z BECMG 2615/2617 04010KT SCT030 BECMG 2619/2621 01010KT RMK PFM

Weather observations and forecasts of more than 4000 airports (METAR and TAF reports).

The available stations are represented by yellow and red dots on the map.

Hover mouse over dot to see the name of the station.

Then click to see weather observations and forecasts.

To change the map : click on the green buttons with a black cross to zoom in, on the green button with a dash to zoom out, or on the green arrows for adjacent maps.


METAR-TAF: